Cross City, Florida
Current Conditions -  °F | °C
As of 6:55 AM on Monday 24 Nov 2014 (Local Time) from K40J Reporting Station
Haze Haze  
Wind Chill: 71°   Ceiling: 200
Heat Index: 71°   Visibility: 5mi
Dew Point: 71°   Wind: 14mph
Humidity: 99%   Direction: 200°SSW
Pressure: 29.88"   Gusts: 22mph
Location:  29.63°N, 83.13°W
Report Text: K40J 241155Z AUTO 20012G19KT 5SM BR OVC002 22/22 A2988 RMK AO2 7//// T02170215 10220 20215
Loading
Personal Weather Stations






























Interactive Weather Map New forecast layout! Learn more

10-Day Weather Forecast

Advertisements
Track Severe Weather on mobile